createdAt,value
2023-05-24T00:01:49.746Z,19.42
2023-05-24T00:04:20.655Z,19.41
2023-05-24T00:06:51.563Z,19.40
2023-05-24T00:09:22.452Z,19.39
2023-05-24T00:11:53.323Z,19.38
2023-05-24T00:14:24.115Z,19.37
2023-05-24T00:16:55.045Z,19.37
2023-05-24T00:19:25.987Z,19.36
2023-05-24T00:21:56.788Z,19.36
2023-05-24T00:24:27.553Z,19.35
2023-05-24T00:26:58.337Z,19.33
2023-05-24T00:29:31.442Z,19.32
2023-05-24T00:32:04.351Z,19.32
2023-05-24T00:34:35.151Z,19.31
2023-05-24T00:37:07.477Z,19.31
2023-05-24T00:39:38.213Z,19.31
2023-05-24T00:42:09.112Z,19.30
2023-05-24T00:44:39.853Z,19.30
2023-05-24T00:47:10.716Z,19.30
2023-05-24T00:49:41.625Z,19.29
2023-05-24T00:52:12.549Z,19.28
2023-05-24T00:54:44.274Z,19.27
2023-05-24T00:57:15.654Z,19.26
2023-05-24T00:59:47.122Z,19.25
2023-05-24T01:02:18.667Z,19.23
2023-05-24T01:04:51.002Z,19.22
2023-05-24T01:07:26.953Z,19.20
2023-05-24T01:10:04.159Z,19.20
2023-05-24T01:12:53.016Z,19.21
2023-05-24T01:15:26.738Z,19.20
2023-05-24T01:18:02.965Z,19.19
2023-05-24T01:20:34.745Z,19.19
2023-05-24T01:23:25.828Z,19.18
2023-05-24T01:26:02.125Z,19.17
2023-05-24T01:28:33.831Z,19.17
2023-05-24T01:31:05.454Z,19.14
2023-05-24T01:33:36.697Z,19.12
2023-05-24T01:36:08.209Z,19.11
2023-05-24T01:38:39.579Z,19.08
2023-05-24T01:41:27.173Z,19.07
2023-05-24T01:44:04.341Z,19.07
2023-05-24T01:46:37.095Z,19.07
2023-05-24T01:49:20.612Z,19.07
2023-05-24T01:51:52.724Z,19.04
2023-05-24T01:54:27.141Z,19.03
2023-05-24T01:56:58.663Z,19.02
2023-05-24T01:59:31.350Z,19.02
2023-05-24T02:02:02.473Z,19.01
2023-05-24T02:04:33.390Z,18.99
2023-05-24T02:07:04.320Z,18.97
2023-05-24T02:09:35.216Z,18.95
2023-05-24T02:12:06.609Z,18.93
2023-05-24T02:14:38.340Z,18.92
2023-05-24T02:17:09.476Z,18.91
2023-05-24T02:19:40.304Z,18.88
2023-05-24T02:22:11.090Z,18.86
2023-05-24T02:24:41.968Z,18.85
2023-05-24T02:27:12.756Z,18.85
2023-05-24T02:29:43.546Z,18.84
2023-05-24T02:32:14.744Z,18.82
2023-05-24T02:34:45.766Z,18.80
2023-05-24T02:37:16.733Z,18.79
2023-05-24T02:39:47.644Z,18.78
2023-05-24T02:42:18.643Z,18.76
2023-05-24T02:44:52.597Z,18.73
2023-05-24T02:47:23.517Z,18.72
2023-05-24T02:49:54.428Z,18.70
2023-05-24T02:52:25.713Z,18.69
2023-05-24T02:54:56.656Z,18.68
2023-05-24T02:57:28.901Z,18.65
2023-05-24T03:00:00.169Z,18.63
2023-05-24T03:02:34.256Z,18.62
2023-05-24T03:05:06.093Z,18.61
2023-05-24T03:07:36.911Z,18.60
2023-05-24T03:10:08.653Z,18.60
2023-05-24T03:12:39.762Z,18.59
2023-05-24T03:15:12.714Z,18.58
2023-05-24T03:17:43.566Z,18.58
2023-05-24T03:20:17.719Z,18.58
2023-05-24T03:22:49.567Z,18.61
2023-05-24T03:25:20.429Z,18.63
2023-05-24T03:27:51.470Z,18.63
2023-05-24T03:30:23.229Z,18.65
2023-05-24T03:32:57.458Z,18.64
2023-05-24T03:35:28.457Z,18.63
2023-05-24T03:38:00.133Z,18.62
2023-05-24T03:40:33.744Z,18.62
2023-05-24T03:43:17.145Z,18.62
2023-05-24T03:46:00.457Z,18.64
2023-05-24T03:48:31.295Z,18.64
2023-05-24T03:51:02.929Z,18.65
2023-05-24T03:53:33.849Z,18.65
2023-05-24T03:56:04.669Z,18.67
2023-05-24T03:58:35.450Z,18.68
2023-05-24T04:01:06.935Z,18.69
2023-05-24T04:03:39.244Z,18.70
2023-05-24T04:06:10.300Z,18.72
2023-05-24T04:08:41.200Z,18.74
2023-05-24T04:11:13.411Z,18.77
2023-05-24T04:13:44.191Z,18.79
2023-05-24T04:16:15.298Z,18.80
2023-05-24T04:18:46.484Z,18.80
2023-05-24T04:21:17.425Z,18.80
2023-05-24T04:23:48.319Z,18.77
2023-05-24T04:26:19.227Z,18.77
2023-05-24T04:28:50.021Z,18.77
2023-05-24T04:31:21.466Z,18.76
2023-05-24T04:33:52.796Z,18.75
2023-05-24T04:36:25.318Z,18.75
2023-05-24T04:38:56.250Z,18.75
2023-05-24T04:41:29.251Z,18.76
2023-05-24T04:44:00.922Z,18.76
2023-05-24T04:46:31.730Z,18.78
2023-05-24T04:49:02.626Z,18.80
2023-05-24T04:51:33.957Z,18.83
2023-05-24T04:54:08.879Z,18.90
2023-05-24T04:56:40.258Z,18.97
2023-05-24T04:59:11.178Z,19.05
2023-05-24T05:01:42.098Z,19.15
2023-05-24T05:04:13.027Z,19.25
2023-05-24T05:06:44.874Z,19.36
2023-05-24T05:09:15.963Z,19.49
2023-05-24T05:11:47.238Z,19.62
2023-05-24T05:14:18.002Z,19.76
2023-05-24T05:16:49.027Z,19.88
2023-05-24T05:19:20.073Z,19.98
2023-05-24T05:21:50.980Z,20.09
2023-05-24T05:24:22.018Z,20.24
2023-05-24T05:26:52.849Z,20.42
2023-05-24T05:29:24.503Z,20.59
2023-05-24T05:31:55.969Z,20.71
2023-05-24T05:34:26.816Z,20.80
2023-05-24T05:36:57.606Z,20.85
2023-05-24T05:39:28.460Z,20.91
2023-05-24T05:41:59.484Z,20.99
2023-05-24T05:44:30.230Z,21.08
2023-05-24T05:47:01.071Z,21.14
2023-05-24T05:49:32.159Z,21.17
2023-05-24T05:52:03.016Z,21.22
2023-05-24T05:54:34.024Z,21.26
2023-05-24T05:57:05.098Z,21.29
2023-05-24T05:59:36.425Z,21.31
2023-05-24T06:02:07.727Z,21.33
2023-05-24T06:04:39.219Z,21.34
2023-05-24T06:07:10.183Z,21.35
2023-05-24T06:09:41.060Z,21.37
2023-05-24T06:12:11.879Z,21.39
2023-05-24T06:14:42.699Z,21.40
2023-05-24T06:17:13.752Z,21.42
2023-05-24T06:19:44.786Z,21.41
2023-05-24T06:22:15.623Z,21.43
2023-05-24T06:24:47.078Z,21.45
2023-05-24T06:27:17.951Z,21.47
2023-05-24T06:29:49.249Z,21.46
2023-05-24T06:32:20.056Z,21.46
2023-05-24T06:34:50.889Z,21.49
2023-05-24T06:37:25.840Z,21.51
2023-05-24T06:39:56.601Z,21.56
2023-05-24T06:42:27.422Z,21.59
2023-05-24T06:44:58.929Z,21.62
2023-05-24T06:47:30.049Z,21.65
2023-05-24T06:50:02.200Z,21.68
2023-05-24T06:52:33.036Z,21.68
2023-05-24T06:55:03.788Z,21.67
2023-05-24T06:57:34.495Z,21.68
2023-05-24T07:00:10.084Z,21.73
2023-05-24T07:02:41.139Z,21.79
2023-05-24T07:05:12.680Z,21.87
2023-05-24T07:07:44.326Z,21.97
2023-05-24T07:10:15.133Z,22.05
2023-05-24T07:12:46.241Z,22.11
2023-05-24T07:15:17.108Z,22.20
2023-05-24T07:17:48.394Z,22.28
2023-05-24T07:20:19.382Z,22.36
2023-05-24T07:22:50.171Z,22.44
2023-05-24T07:25:20.923Z,22.52
2023-05-24T07:27:52.012Z,22.58
2023-05-24T07:30:31.793Z,22.63
2023-05-24T07:33:03.775Z,22.68
2023-05-24T07:35:35.160Z,22.74
2023-05-24T07:38:05.975Z,22.79
2023-05-24T07:40:36.832Z,22.87
2023-05-24T07:43:07.764Z,22.97
2023-05-24T07:45:38.696Z,23.08
2023-05-24T07:48:09.545Z,23.19
2023-05-24T07:50:40.476Z,23.26
2023-05-24T07:53:11.982Z,23.30
2023-05-24T07:55:43.014Z,23.36
2023-05-24T07:58:14.028Z,23.41
2023-05-24T08:00:45.264Z,23.43
2023-05-24T08:03:17.530Z,23.44
2023-05-24T08:05:48.624Z,23.44
2023-05-24T08:08:19.712Z,23.44
2023-05-24T08:10:50.497Z,23.46
2023-05-24T08:13:21.277Z,23.47
2023-05-24T08:15:52.035Z,23.47
2023-05-24T08:18:22.898Z,23.47
2023-05-24T08:20:53.564Z,23.47
2023-05-24T08:23:24.429Z,23.47
2023-05-24T08:25:55.246Z,23.48
2023-05-24T08:28:28.294Z,23.50
2023-05-24T08:30:59.729Z,23.53
2023-05-24T08:33:30.556Z,23.56
2023-05-24T08:36:01.500Z,23.58
2023-05-24T08:38:32.263Z,23.62
2023-05-24T08:41:03.521Z,23.68
2023-05-24T08:43:34.474Z,23.74
2023-05-24T08:46:06.282Z,23.79
2023-05-24T08:48:42.764Z,23.85
2023-05-24T08:51:13.832Z,23.91
2023-05-24T08:53:49.089Z,23.96
2023-05-24T08:56:20.245Z,24.01
2023-05-24T08:58:52.049Z,24.03
2023-05-24T09:01:23.350Z,24.08
2023-05-24T09:03:55.169Z,24.10
2023-05-24T09:06:26.563Z,24.11
2023-05-24T09:08:57.911Z,24.12
2023-05-24T09:11:28.792Z,24.15
2023-05-24T09:13:59.641Z,24.20
2023-05-24T09:16:30.821Z,24.28
2023-05-24T09:19:01.644Z,24.35
2023-05-24T09:21:32.866Z,24.43
2023-05-24T09:24:03.682Z,24.53
2023-05-24T09:26:34.514Z,24.66
2023-05-24T09:29:07.791Z,24.85
2023-05-24T09:31:40.405Z,25.11
2023-05-24T09:34:18.908Z,25.38
2023-05-24T09:36:49.806Z,25.67
2023-05-24T09:39:22.495Z,25.90
2023-05-24T09:41:57.528Z,26.14
2023-05-24T09:44:28.625Z,26.31
2023-05-24T09:47:05.391Z,26.45
2023-05-24T09:49:38.134Z,26.64
2023-05-24T09:52:09.167Z,26.85
2023-05-24T09:54:41.704Z,27.05
2023-05-24T09:57:12.669Z,27.24
2023-05-24T09:59:44.517Z,27.42
2023-05-24T10:02:15.292Z,27.58
2023-05-24T10:04:46.270Z,27.69
2023-05-24T10:07:17.620Z,27.77
2023-05-24T10:09:48.535Z,27.81
2023-05-24T10:12:23.307Z,27.76
2023-05-24T10:14:57.600Z,27.73
2023-05-24T10:17:28.950Z,27.68
2023-05-24T10:19:59.787Z,27.53
2023-05-24T10:22:31.694Z,27.32
2023-05-24T10:25:02.693Z,27.17
2023-05-24T10:27:34.045Z,26.99
2023-05-24T10:30:13.707Z,26.82
2023-05-24T10:32:46.601Z,26.72
2023-05-24T10:35:20.265Z,26.67
2023-05-24T10:37:51.288Z,26.71
2023-05-24T10:40:25.444Z,26.76
2023-05-24T10:42:56.854Z,26.79
2023-05-24T10:45:36.069Z,26.82
2023-05-24T10:48:29.767Z,26.87
2023-05-24T10:51:01.974Z,26.90
2023-05-24T10:53:39.733Z,26.89
2023-05-24T10:56:11.152Z,26.90
2023-05-24T10:58:59.615Z,26.89
2023-05-24T11:01:32.323Z,26.93
2023-05-24T11:04:10.664Z,26.99
2023-05-24T11:06:51.653Z,27.00
2023-05-24T11:09:22.793Z,27.03
2023-05-24T11:11:56.253Z,27.13
2023-05-24T11:14:31.321Z,27.30
2023-05-24T11:17:02.284Z,27.52
2023-05-24T11:19:35.086Z,27.68
2023-05-24T11:22:07.868Z,27.78
2023-05-24T11:24:38.794Z,27.83
2023-05-24T11:27:12.260Z,27.75
2023-05-24T11:29:43.693Z,27.61
2023-05-24T11:32:17.572Z,27.48
2023-05-24T11:34:49.108Z,27.34
2023-05-24T11:37:26.275Z,27.22
2023-05-24T11:39:59.974Z,27.06
2023-05-24T11:42:30.862Z,26.94
2023-05-24T11:45:01.830Z,26.83
2023-05-24T11:47:36.636Z,26.72
2023-05-24T11:50:08.229Z,26.65
2023-05-24T11:52:41.422Z,26.66
2023-05-24T11:55:17.299Z,26.69
2023-05-24T11:57:50.974Z,26.68
2023-05-24T12:00:26.918Z,26.59
2023-05-24T12:03:05.287Z,26.53
2023-05-24T12:05:37.390Z,26.49
2023-05-24T12:08:12.349Z,26.43
2023-05-24T12:10:44.323Z,26.36
2023-05-24T12:13:26.723Z,26.26
2023-05-24T12:15:58.359Z,26.23
2023-05-24T12:18:30.071Z,26.23
2023-05-24T12:21:00.902Z,26.23
2023-05-24T12:23:33.027Z,26.23
2023-05-24T12:26:04.642Z,26.20
2023-05-24T12:28:39.320Z,26.13
2023-05-24T12:31:10.258Z,26.06
2023-05-24T12:33:41.184Z,26.01
2023-05-24T12:36:13.004Z,25.94
2023-05-24T12:38:43.948Z,25.87
2023-05-24T12:41:14.888Z,25.80
2023-05-24T12:43:45.882Z,25.75
2023-05-24T12:46:16.712Z,25.72
2023-05-24T12:48:47.531Z,25.67
2023-05-24T12:51:18.435Z,25.65
2023-05-24T12:53:49.254Z,25.66
2023-05-24T12:56:20.111Z,25.68
2023-05-24T12:58:51.054Z,25.71
2023-05-24T13:01:21.955Z,25.76
2023-05-24T13:03:53.775Z,25.83
2023-05-24T13:06:25.616Z,25.91
2023-05-24T13:08:56.445Z,25.98
2023-05-24T13:11:27.860Z,26.04
2023-05-24T13:13:59.963Z,26.11
2023-05-24T13:16:30.860Z,26.15
2023-05-24T13:19:01.939Z,26.18
2023-05-24T13:21:32.733Z,26.21
2023-05-24T13:24:03.820Z,26.20
2023-05-24T13:26:37.594Z,26.19
2023-05-24T13:29:32.156Z,26.17
2023-05-24T13:31:59.845Z,26.17
2023-05-24T13:34:30.804Z,26.18
2023-05-24T13:37:01.830Z,26.18
2023-05-24T13:39:33.015Z,26.18
2023-05-24T13:42:03.923Z,26.17
2023-05-24T13:44:34.870Z,26.11
2023-05-24T13:47:06.023Z,26.04
2023-05-24T13:49:38.028Z,26.00
2023-05-24T13:52:08.968Z,25.98
2023-05-24T13:54:39.842Z,25.98
2023-05-24T13:57:10.626Z,26.02
2023-05-24T13:59:41.930Z,26.03
2023-05-24T14:02:12.715Z,26.00
2023-05-24T14:04:43.785Z,25.98
2023-05-24T14:07:15.840Z,25.96
2023-05-24T14:09:46.935Z,25.93
2023-05-24T14:12:17.801Z,25.93
2023-05-24T14:17:22.319Z,25.85
2023-05-24T14:19:53.081Z,25.81
2023-05-24T14:22:26.028Z,25.82
2023-05-24T14:24:56.862Z,25.83
2023-05-24T14:27:27.823Z,25.82
2023-05-24T14:29:58.563Z,25.84
2023-05-24T14:32:29.292Z,25.85
2023-05-24T14:35:00.149Z,25.88
2023-05-24T14:37:31.078Z,25.91
2023-05-24T14:40:02.222Z,25.95
2023-05-24T14:42:33.385Z,25.98
2023-05-24T14:45:04.606Z,25.97
2023-05-24T14:47:35.861Z,25.97
2023-05-24T14:50:07.442Z,25.98
2023-05-24T14:52:38.222Z,25.97
2023-05-24T14:55:09.896Z,25.95
2023-05-24T14:57:41.960Z,25.89
2023-05-24T15:00:14.179Z,25.83
2023-05-24T15:02:44.913Z,25.79
2023-05-24T15:05:16.165Z,25.73
2023-05-24T15:07:47.025Z,25.67
2023-05-24T15:10:17.827Z,25.62
2023-05-24T15:12:48.786Z,25.56
2023-05-24T15:15:20.377Z,25.49
2023-05-24T15:17:51.386Z,25.45
2023-05-24T15:20:22.557Z,25.42
2023-05-24T15:22:53.607Z,25.37
2023-05-24T15:25:24.486Z,25.31
2023-05-24T15:27:55.306Z,25.24
2023-05-24T15:30:26.209Z,25.19
2023-05-24T15:32:57.336Z,25.15
2023-05-24T15:35:28.233Z,25.10
2023-05-24T15:37:58.967Z,25.09
2023-05-24T15:40:29.956Z,25.09
2023-05-24T15:43:00.752Z,25.11
2023-05-24T15:45:31.574Z,25.09
2023-05-24T15:48:02.429Z,25.06
2023-05-24T15:50:54.114Z,25.03
2023-05-24T15:53:25.507Z,24.99
2023-05-24T15:55:57.552Z,24.94
2023-05-24T15:58:28.382Z,24.90
2023-05-24T16:00:59.093Z,24.86
2023-05-24T16:03:29.959Z,24.81
2023-05-24T16:06:00.932Z,24.76
2023-05-24T16:08:31.886Z,24.71
2023-05-24T16:11:03.899Z,24.67
2023-05-24T16:13:34.728Z,24.64
2023-05-24T16:16:05.625Z,24.60
2023-05-24T16:18:37.240Z,24.58
2023-05-24T16:21:07.940Z,24.55
2023-05-24T16:23:38.771Z,24.53
2023-05-24T16:26:09.619Z,24.49
2023-05-24T16:28:40.346Z,24.46
2023-05-24T16:31:11.181Z,24.44
2023-05-24T16:33:42.398Z,24.42
2023-05-24T16:36:13.556Z,24.41
2023-05-24T16:38:44.407Z,24.37
2023-05-24T16:41:15.188Z,24.36
2023-05-24T16:43:46.227Z,24.33
2023-05-24T16:46:17.190Z,24.30
2023-05-24T16:48:48.107Z,24.28
2023-05-24T16:51:19.139Z,24.28
2023-05-24T16:53:49.937Z,24.27
2023-05-24T16:56:20.699Z,24.27
2023-05-24T16:58:52.075Z,24.24
2023-05-24T17:01:23.013Z,24.19
2023-05-24T17:03:53.926Z,24.16
2023-05-24T17:06:25.173Z,24.10
2023-05-24T17:08:56.099Z,24.04
2023-05-24T17:11:26.925Z,23.99
2023-05-24T17:13:57.838Z,23.95
2023-05-24T17:16:29.993Z,23.90
2023-05-24T17:19:01.207Z,23.85
2023-05-24T17:21:31.967Z,23.82
2023-05-24T17:24:02.799Z,23.78
2023-05-24T17:26:34.695Z,23.74
2023-05-24T17:29:05.885Z,23.70
2023-05-24T17:31:37.588Z,23.65
2023-05-24T17:34:08.247Z,23.58
2023-05-24T17:36:39.063Z,23.54
2023-05-24T17:39:09.758Z,23.50
2023-05-24T17:41:40.944Z,23.44
2023-05-24T17:44:11.839Z,23.38
2023-05-24T17:46:42.754Z,23.32
2023-05-24T17:49:14.267Z,23.26
2023-05-24T17:51:45.013Z,23.22
2023-05-24T17:54:15.805Z,23.17
2023-05-24T17:56:46.692Z,23.14
2023-05-24T17:59:17.457Z,23.09
2023-05-24T18:01:49.095Z,23.05
2023-05-24T18:04:20.180Z,23.01
2023-05-24T18:06:51.005Z,22.97
2023-05-24T18:09:22.198Z,22.92
2023-05-24T18:11:53.069Z,22.86
2023-05-24T18:14:23.925Z,22.81
2023-05-24T18:16:57.160Z,22.76
2023-05-24T18:19:29.222Z,22.72
2023-05-24T18:21:59.990Z,22.65
2023-05-24T18:24:30.847Z,22.59
2023-05-24T18:27:02.385Z,22.56
2023-05-24T18:29:33.200Z,22.52
2023-05-24T18:32:04.051Z,22.49
2023-05-24T18:34:34.821Z,22.45
2023-05-24T18:37:06.048Z,22.41
2023-05-24T18:39:37.243Z,22.33
2023-05-24T18:42:09.310Z,22.29
2023-05-24T18:44:40.287Z,22.22
2023-05-24T18:47:11.798Z,22.17
2023-05-24T18:49:42.636Z,22.16
2023-05-24T18:52:13.537Z,22.15
2023-05-24T18:54:44.297Z,22.12
2023-05-24T18:57:15.086Z,22.10
2023-05-24T18:59:45.815Z,22.07
2023-05-24T19:02:16.765Z,22.04
2023-05-24T19:04:49.079Z,22.00
2023-05-24T19:07:19.920Z,21.96
2023-05-24T19:09:50.894Z,21.93
2023-05-24T19:12:21.758Z,21.90
2023-05-24T19:14:52.629Z,21.86
2023-05-24T19:17:24.279Z,21.83
2023-05-24T19:19:55.376Z,21.81
2023-05-24T19:22:26.382Z,21.80
2023-05-24T19:24:57.276Z,21.78
2023-05-24T19:27:28.598Z,21.74
2023-05-24T19:30:00.284Z,21.70
2023-05-24T19:32:31.093Z,21.64
2023-05-24T19:35:01.862Z,21.58
2023-05-24T19:37:32.723Z,21.47
2023-05-24T19:40:03.882Z,21.39
2023-05-24T19:42:35.252Z,21.31
2023-05-24T19:45:09.608Z,21.25
2023-05-24T19:47:40.682Z,21.19
2023-05-24T19:50:12.515Z,21.17
2023-05-24T19:52:43.732Z,21.14
2023-05-24T19:55:14.574Z,21.11
2023-05-24T19:57:45.347Z,21.08
2023-05-24T20:00:16.553Z,21.06
2023-05-24T20:02:47.355Z,21.05
2023-05-24T20:05:18.476Z,21.04
2023-05-24T20:07:49.337Z,21.02
2023-05-24T20:10:20.322Z,21.01
2023-05-24T20:12:51.153Z,20.99
2023-05-24T20:15:26.922Z,20.96
2023-05-24T20:17:57.980Z,20.92
2023-05-24T20:20:28.871Z,20.85
2023-05-24T20:22:59.827Z,20.79
2023-05-24T20:25:30.623Z,20.75
2023-05-24T20:28:01.410Z,20.72
2023-05-24T20:30:32.266Z,20.67
2023-05-24T20:33:03.153Z,20.65
2023-05-24T20:35:34.140Z,20.65
2023-05-24T20:38:05.348Z,20.61
2023-05-24T20:40:36.254Z,20.53
2023-05-24T20:43:08.592Z,20.51
2023-05-24T20:45:39.393Z,20.49
2023-05-24T20:48:10.309Z,20.43
2023-05-24T20:50:41.351Z,20.35
2023-05-24T20:53:14.136Z,20.31
2023-05-24T20:55:45.353Z,20.27
2023-05-24T20:58:17.301Z,20.22
2023-05-24T21:00:48.175Z,20.15
2023-05-24T21:03:19.107Z,20.10
2023-05-24T21:05:50.031Z,20.05
2023-05-24T21:08:20.833Z,20.01
2023-05-24T21:10:51.636Z,19.97
2023-05-24T21:13:22.523Z,19.96
2023-05-24T21:15:53.282Z,19.96
2023-05-24T21:18:24.140Z,19.97
2023-05-24T21:20:54.811Z,19.96
2023-05-24T21:23:25.615Z,19.92
2023-05-24T21:25:56.405Z,19.85
2023-05-24T21:28:27.241Z,19.83
2023-05-24T21:30:58.087Z,19.81
2023-05-24T21:33:28.938Z,19.78
2023-05-24T21:35:59.697Z,19.74
2023-05-24T21:38:30.563Z,19.71
2023-05-24T21:41:01.319Z,19.66
2023-05-24T21:43:32.124Z,19.63
2023-05-24T21:46:02.953Z,19.62
2023-05-24T21:48:33.764Z,19.61
2023-05-24T21:51:04.762Z,19.57
2023-05-24T21:53:35.903Z,19.55
2023-05-24T21:56:06.941Z,19.54
2023-05-24T21:58:38.521Z,19.49
2023-05-24T22:01:09.425Z,19.43
2023-05-24T22:03:40.404Z,19.41
2023-05-24T22:06:11.703Z,19.40
2023-05-24T22:08:42.418Z,19.37
2023-05-24T22:11:13.188Z,19.34
2023-05-24T22:13:44.068Z,19.30
2023-05-24T22:16:14.935Z,19.27
2023-05-24T22:18:45.864Z,19.23
2023-05-24T22:21:16.495Z,19.18
2023-05-24T22:23:47.340Z,19.12
2023-05-24T22:26:18.179Z,19.08
2023-05-24T22:28:56.046Z,19.06
2023-05-24T22:31:27.881Z,19.04
2023-05-24T22:34:02.249Z,18.99
2023-05-24T22:36:33.776Z,18.95
2023-05-24T22:39:04.709Z,18.93
2023-05-24T22:41:35.593Z,18.90
2023-05-24T22:44:06.394Z,18.86
2023-05-24T22:46:37.875Z,18.82
2023-05-24T22:49:08.691Z,18.81
2023-05-24T22:51:44.278Z,18.82
2023-05-24T22:54:15.350Z,18.81
2023-05-24T22:56:47.128Z,18.75
2023-05-24T22:59:18.010Z,18.72
2023-05-24T23:01:48.923Z,18.72
2023-05-24T23:04:21.832Z,18.71
2023-05-24T23:06:53.636Z,18.67
2023-05-24T23:09:35.107Z,18.62
2023-05-24T23:12:08.474Z,18.55
2023-05-24T23:14:41.822Z,18.51
2023-05-24T23:17:14.539Z,18.46
2023-05-24T23:19:45.383Z,18.43
2023-05-24T23:22:18.558Z,18.40
2023-05-24T23:24:49.403Z,18.39
2023-05-24T23:27:20.357Z,18.39
2023-05-24T23:29:51.307Z,18.41
2023-05-24T23:32:22.111Z,18.42
2023-05-24T23:34:52.983Z,18.41
2023-05-24T23:37:23.802Z,18.40
2023-05-24T23:39:54.600Z,18.37
2023-05-24T23:42:26.471Z,18.35
2023-05-24T23:44:57.257Z,18.35
2023-05-24T23:47:28.146Z,18.34
2023-05-24T23:49:58.976Z,18.32
2023-05-24T23:52:29.786Z,18.30
2023-05-24T23:55:00.552Z,18.30
2023-05-24T23:57:31.331Z,18.33
